createdAt,value
2023-05-13T00:00:53.940Z,2.53
2023-05-13T00:03:21.291Z,1.88
2023-05-13T00:05:48.509Z,2.08
2023-05-13T00:08:15.525Z,2.15
2023-05-13T00:10:42.483Z,2.22
2023-05-13T00:13:09.532Z,2.20
2023-05-13T00:15:36.868Z,1.98
2023-05-13T00:18:04.457Z,2.03
2023-05-13T00:20:31.516Z,1.75
2023-05-13T00:22:58.389Z,2.00
2023-05-13T00:25:25.368Z,1.92
2023-05-13T00:27:52.253Z,1.33
2023-05-13T00:30:19.318Z,2.28
2023-05-13T00:32:46.455Z,1.67
2023-05-13T00:35:13.498Z,2.40
2023-05-13T00:37:40.374Z,2.17
2023-05-13T00:40:10.289Z,3.03
2023-05-13T00:42:37.425Z,1.45
2023-05-13T00:45:04.858Z,1.88
2023-05-13T00:47:31.865Z,1.48
2023-05-13T00:49:58.904Z,2.00
2023-05-13T00:52:25.838Z,1.42
2023-05-13T00:54:52.687Z,1.95
2023-05-13T00:57:19.641Z,1.75
2023-05-13T00:59:47.092Z,1.55
2023-05-13T01:02:19.559Z,1.92
2023-05-13T01:05:07.578Z,1.48
2023-05-13T01:07:59.041Z,1.58
2023-05-13T01:10:37.509Z,1.30
2023-05-13T01:13:11.616Z,1.52
2023-05-13T01:16:17.545Z,1.48
2023-05-13T01:18:56.694Z,1.85
2023-05-13T01:21:31.392Z,2.05
2023-05-13T01:23:59.448Z,2.15
2023-05-13T01:26:26.864Z,2.28
2023-05-13T01:28:54.066Z,1.48
2023-05-13T01:31:21.177Z,1.65
2023-05-13T01:33:48.518Z,1.88
2023-05-13T01:36:15.709Z,2.15
2023-05-13T01:38:43.588Z,1.95
2023-05-13T01:41:10.580Z,2.38
2023-05-13T01:43:38.143Z,1.85
2023-05-13T01:46:12.121Z,1.25
2023-05-13T01:48:39.210Z,1.48
2023-05-13T01:51:06.622Z,1.45
2023-05-13T01:53:33.633Z,1.50
2023-05-13T01:56:00.575Z,1.77
2023-05-13T01:58:30.658Z,1.58
2023-05-13T02:00:57.643Z,1.70
2023-05-13T02:03:24.794Z,2.15
2023-05-13T02:05:52.157Z,1.75
2023-05-13T02:08:19.272Z,2.33
2023-05-13T02:10:55.195Z,2.08
2023-05-13T02:13:22.285Z,1.88
2023-05-13T02:15:49.150Z,1.42
2023-05-13T02:18:16.142Z,0.93
2023-05-13T02:20:44.635Z,1.58
2023-05-13T02:23:11.754Z,1.48
2023-05-13T02:25:38.714Z,1.92
2023-05-13T02:28:05.639Z,1.52
2023-05-13T02:30:32.535Z,1.60
2023-05-13T02:33:00.923Z,1.38
2023-05-13T02:35:30.649Z,1.55
2023-05-13T02:38:00.554Z,2.00
2023-05-13T02:40:28.684Z,1.40
2023-05-13T02:42:55.819Z,1.30
2023-05-13T02:45:31.193Z,1.40
2023-05-13T02:47:58.229Z,2.13
2023-05-13T02:50:25.394Z,1.83
2023-05-13T02:52:53.289Z,1.23
2023-05-13T02:55:20.402Z,1.60
2023-05-13T02:57:47.331Z,2.17
2023-05-13T03:00:14.921Z,1.95
2023-05-13T03:02:42.325Z,2.25
2023-05-13T03:05:09.741Z,2.75
2023-05-13T03:07:36.775Z,1.98
2023-05-13T03:10:05.165Z,2.70
2023-05-13T03:12:32.284Z,1.60
2023-05-13T03:14:59.414Z,1.55
2023-05-13T03:17:26.771Z,2.13
2023-05-13T03:19:53.856Z,2.03
2023-05-13T03:22:20.891Z,1.40
2023-05-13T03:24:47.829Z,2.30
2023-05-13T03:27:14.980Z,2.50
2023-05-13T03:29:42.043Z,1.48
2023-05-13T03:32:08.965Z,2.00
2023-05-13T03:34:37.758Z,1.77
2023-05-13T03:37:05.260Z,2.13
2023-05-13T03:39:32.264Z,1.55
2023-05-13T03:41:59.197Z,1.10
2023-05-13T03:44:26.118Z,1.58
2023-05-13T03:46:53.324Z,1.60
2023-05-13T03:49:20.433Z,2.22
2023-05-13T03:51:49.388Z,1.77
2023-05-13T03:54:16.357Z,1.13
2023-05-13T03:56:43.298Z,2.25
2023-05-13T03:59:10.348Z,1.73
2023-05-13T04:01:37.366Z,2.30
2023-05-13T04:04:04.489Z,1.75
2023-05-13T04:06:31.998Z,1.40
2023-05-13T04:08:59.440Z,1.77
2023-05-13T04:11:26.448Z,1.52
2023-05-13T04:13:55.436Z,1.95
2023-05-13T04:16:22.640Z,1.10
2023-05-13T04:18:49.614Z,1.65
2023-05-13T04:21:16.523Z,1.85
2023-05-13T04:23:43.533Z,1.58
2023-05-13T04:26:11.349Z,1.30
2023-05-13T04:28:38.524Z,2.15
2023-05-13T04:31:05.472Z,1.40
2023-05-13T04:33:35.534Z,1.58
2023-05-13T04:36:03.473Z,1.85
2023-05-13T04:38:31.480Z,1.80
2023-05-13T04:40:58.723Z,2.42
2023-05-13T04:43:39.405Z,1.38
2023-05-13T04:46:06.408Z,1.55
2023-05-13T04:48:33.541Z,1.70
2023-05-13T04:51:00.993Z,2.10
2023-05-13T04:53:28.894Z,1.73
2023-05-13T04:56:01.032Z,1.83
2023-05-13T04:58:29.550Z,2.67
2023-05-13T05:00:57.435Z,1.83
2023-05-13T05:03:25.033Z,1.77
2023-05-13T05:05:52.110Z,1.63
2023-05-13T05:08:19.406Z,1.90
2023-05-13T05:10:47.903Z,2.15
2023-05-13T05:13:15.555Z,1.77
2023-05-13T05:15:44.039Z,1.42
2023-05-13T05:18:11.810Z,1.73
2023-05-13T05:20:39.899Z,1.90
2023-05-13T05:23:11.327Z,2.05
2023-05-13T05:25:38.722Z,1.45
2023-05-13T05:28:05.840Z,1.92
2023-05-13T05:30:39.450Z,2.22
2023-05-13T05:33:11.426Z,1.33
2023-05-13T05:35:40.441Z,2.50
2023-05-13T05:38:09.441Z,2.40
2023-05-13T05:40:40.606Z,1.70
2023-05-13T05:43:08.076Z,1.58
2023-05-13T05:45:36.169Z,1.30
2023-05-13T05:48:04.828Z,1.65
2023-05-13T05:50:32.136Z,2.03
2023-05-13T05:53:00.483Z,1.55
2023-05-13T05:55:28.540Z,2.08
2023-05-13T05:57:56.373Z,2.28
2023-05-13T06:00:24.626Z,1.73
2023-05-13T06:02:51.806Z,1.98
2023-05-13T06:05:18.952Z,1.63
2023-05-13T06:07:47.410Z,2.10
2023-05-13T06:10:15.501Z,1.75
2023-05-13T06:12:46.057Z,2.75
2023-05-13T06:15:13.091Z,2.00
2023-05-13T06:17:40.290Z,2.10
2023-05-13T06:20:08.340Z,2.08
2023-05-13T06:22:35.930Z,1.40
2023-05-13T06:25:02.928Z,1.60
2023-05-13T06:27:29.958Z,1.63
2023-05-13T06:29:57.161Z,1.80
2023-05-13T06:32:24.163Z,2.28
2023-05-13T06:34:53.980Z,2.15
2023-05-13T06:37:23.038Z,1.50
2023-05-13T06:39:56.395Z,1.15
2023-05-13T06:42:24.114Z,1.63
2023-05-13T06:44:58.880Z,1.23
2023-05-13T06:47:30.617Z,1.77
2023-05-13T06:49:57.570Z,1.58
2023-05-13T06:52:24.550Z,1.17
2023-05-13T06:54:52.348Z,1.55
2023-05-13T06:57:20.779Z,1.52
2023-05-13T06:59:48.844Z,1.83
2023-05-13T07:02:15.929Z,1.27
2023-05-13T07:04:43.208Z,1.45
2023-05-13T07:07:10.044Z,1.48
2023-05-13T07:09:37.218Z,1.55
2023-05-13T07:12:04.219Z,1.77
2023-05-13T07:14:33.277Z,1.88
2023-05-13T07:17:52.963Z,1.63
2023-05-13T07:20:22.625Z,1.50
2023-05-13T07:22:50.078Z,1.92
2023-05-13T07:25:17.862Z,1.80
2023-05-13T07:27:45.050Z,1.85
2023-05-13T07:30:12.625Z,1.70
2023-05-13T07:32:39.913Z,1.83
2023-05-13T07:35:09.045Z,1.27
2023-05-13T07:37:37.116Z,1.67
2023-05-13T07:40:05.935Z,1.50
2023-05-13T07:42:33.572Z,1.38
2023-05-13T07:45:00.610Z,1.60
2023-05-13T07:48:46.803Z,2.15
2023-05-13T07:51:14.118Z,1.20
2023-05-13T07:53:41.005Z,1.65
2023-05-13T07:56:08.952Z,2.20
2023-05-13T07:58:36.120Z,1.15
2023-05-13T08:01:05.039Z,1.48
2023-05-13T08:03:32.354Z,1.90
2023-05-13T08:05:59.489Z,1.48
2023-05-13T08:08:26.392Z,1.85
2023-05-13T08:10:53.289Z,1.48
2023-05-13T08:13:21.364Z,1.20
2023-05-13T08:15:48.968Z,1.92
2023-05-13T08:18:15.922Z,1.40
2023-05-13T08:20:42.891Z,1.23
2023-05-13T08:23:09.933Z,1.42
2023-05-13T08:25:36.936Z,1.27
2023-05-13T08:28:03.974Z,1.50
2023-05-13T08:30:31.351Z,2.08
2023-05-13T08:32:58.222Z,1.88
2023-05-13T08:35:26.035Z,1.58
2023-05-13T08:37:52.974Z,1.33
2023-05-13T08:41:12.601Z,1.60
2023-05-13T08:43:39.883Z,1.08
2023-05-13T08:46:09.915Z,1.80
2023-05-13T08:48:40.150Z,1.38
2023-05-13T08:51:07.160Z,1.30
2023-05-13T08:53:35.074Z,1.30
2023-05-13T08:56:02.259Z,1.40
2023-05-13T08:58:29.263Z,1.95
2023-05-13T09:00:56.345Z,1.15
2023-05-13T09:03:23.232Z,1.30
2023-05-13T09:06:19.349Z,1.25
2023-05-13T09:08:46.381Z,1.00
2023-05-13T09:11:13.250Z,1.33
2023-05-13T09:13:40.567Z,1.40
2023-05-13T09:16:07.830Z,1.40
2023-05-13T09:18:35.037Z,1.33
2023-05-13T09:21:23.046Z,1.80
2023-05-13T09:23:50.426Z,1.80
2023-05-13T09:26:28.208Z,2.10
2023-05-13T09:29:17.547Z,1.77
2023-05-13T09:31:47.447Z,1.95
2023-05-13T09:34:14.981Z,1.80
2023-05-13T09:36:42.968Z,1.40
2023-05-13T09:39:10.827Z,1.77
2023-05-13T09:42:33.100Z,1.80
2023-05-13T09:45:04.418Z,1.23
2023-05-13T09:47:31.446Z,1.58
2023-05-13T09:49:58.420Z,1.33
2023-05-13T09:52:25.597Z,1.42
2023-05-13T09:54:52.682Z,1.27
2023-05-13T09:57:19.713Z,1.70
2023-05-13T09:59:46.689Z,2.03
2023-05-13T10:02:13.672Z,1.52
2023-05-13T10:04:41.264Z,1.52
2023-05-13T10:07:08.565Z,1.33
2023-05-13T10:13:46.723Z,1.35
2023-05-13T10:16:13.691Z,1.48
2023-05-13T10:18:40.615Z,1.42
2023-05-13T10:21:07.586Z,1.42
2023-05-13T10:23:34.584Z,1.50
2023-05-13T10:26:03.009Z,1.75
2023-05-13T10:28:30.026Z,1.17
2023-05-13T10:30:57.175Z,1.70
2023-05-13T10:33:24.679Z,1.75
2023-05-13T10:36:28.489Z,1.23
2023-05-13T10:39:17.766Z,1.23
2023-05-13T10:42:07.754Z,1.30
2023-05-13T10:44:35.509Z,1.27
2023-05-13T10:47:02.946Z,1.17
2023-05-13T10:49:34.904Z,1.15
2023-05-13T10:52:05.932Z,1.50
2023-05-13T10:54:40.514Z,1.73
2023-05-13T10:57:07.785Z,1.25
2023-05-13T10:59:35.866Z,1.35
2023-05-13T11:02:03.879Z,1.20
2023-05-13T11:04:31.190Z,1.38
2023-05-13T11:06:58.682Z,1.52
2023-05-13T11:09:29.090Z,1.15
2023-05-13T11:11:58.415Z,1.65
2023-05-13T11:14:26.737Z,1.35
2023-05-13T11:17:04.463Z,1.13
2023-05-13T11:19:33.329Z,1.45
2023-05-13T11:22:13.146Z,1.13
2023-05-13T11:24:40.269Z,1.88
2023-05-13T11:27:15.341Z,1.50
2023-05-13T11:29:50.321Z,1.70
2023-05-13T11:32:56.643Z,1.58
2023-05-13T11:35:28.281Z,1.70
2023-05-13T11:37:57.602Z,1.58
2023-05-13T11:40:34.982Z,1.63
2023-05-13T11:43:02.162Z,1.70
2023-05-13T11:45:31.065Z,2.33
2023-05-13T11:47:59.651Z,2.28
2023-05-13T11:50:30.651Z,1.92
2023-05-13T11:52:58.809Z,1.65
2023-05-13T11:55:27.184Z,2.47
2023-05-13T11:57:54.504Z,2.10
2023-05-13T12:00:34.200Z,2.10
2023-05-13T12:03:11.675Z,1.92
2023-05-13T12:05:39.621Z,2.25
2023-05-13T12:08:09.982Z,1.98
2023-05-13T12:10:43.534Z,1.92
2023-05-13T12:13:10.476Z,1.85
2023-05-13T12:15:37.591Z,1.50
2023-05-13T12:18:37.223Z,1.83
2023-05-13T12:21:15.229Z,1.55
2023-05-13T12:23:42.258Z,1.77
2023-05-13T12:26:09.205Z,1.67
2023-05-13T12:28:36.097Z,1.88
2023-05-13T12:31:05.523Z,1.73
2023-05-13T12:33:33.859Z,1.60
2023-05-13T12:36:20.569Z,1.73
2023-05-13T12:38:55.454Z,1.33
2023-05-13T12:41:25.840Z,1.30
2023-05-13T12:44:21.100Z,1.30
2023-05-13T12:46:51.790Z,1.70
2023-05-13T12:49:18.888Z,1.88
2023-05-13T12:51:51.599Z,1.50
2023-05-13T12:54:18.571Z,1.65
2023-05-13T12:56:45.459Z,0.85
2023-05-13T12:59:14.316Z,1.38
2023-05-13T13:01:42.894Z,1.52
2023-05-13T13:04:10.296Z,1.30
2023-05-13T13:06:37.364Z,1.10
2023-05-13T13:09:05.252Z,1.65
2023-05-13T13:11:32.149Z,1.52
2023-05-13T13:13:59.162Z,1.02
2023-05-13T13:16:26.122Z,1.33
2023-05-13T13:18:55.675Z,1.38
2023-05-13T13:21:22.795Z,1.63
2023-05-13T13:24:41.078Z,1.40
2023-05-13T13:27:07.980Z,1.35
2023-05-13T13:29:34.875Z,1.40
2023-05-13T13:32:01.899Z,1.33
2023-05-13T13:34:28.964Z,1.45
2023-05-13T13:36:56.288Z,1.58
2023-05-13T13:39:23.228Z,1.45
2023-05-13T13:41:50.189Z,1.20
2023-05-13T13:44:17.153Z,1.63
2023-05-13T13:46:44.082Z,1.92
2023-05-13T13:49:22.608Z,1.50
2023-05-13T13:51:51.100Z,1.95
2023-05-13T13:54:18.144Z,1.60
2023-05-13T13:56:45.026Z,2.20
2023-05-13T13:59:11.950Z,2.13
2023-05-13T14:01:40.223Z,1.40
2023-05-13T14:04:19.868Z,1.33
2023-05-13T14:06:46.894Z,1.25
2023-05-13T14:09:13.822Z,1.77
2023-05-13T14:11:40.798Z,1.38
2023-05-13T14:14:08.440Z,1.63
2023-05-13T14:16:35.986Z,1.50
2023-05-13T14:19:02.921Z,1.60
2023-05-13T14:21:29.810Z,1.52
2023-05-13T14:23:56.810Z,0.90
2023-05-13T14:26:23.897Z,1.20
2023-05-13T14:28:50.824Z,1.05
2023-05-13T14:31:44.318Z,1.00
2023-05-13T14:34:11.224Z,1.33
2023-05-13T14:36:38.269Z,1.08
2023-05-13T14:39:05.185Z,1.48
2023-05-13T14:41:32.161Z,1.30
2023-05-13T14:44:00.149Z,1.88
2023-05-13T14:46:28.267Z,2.00
2023-05-13T14:48:55.254Z,2.25
2023-05-13T14:51:22.145Z,2.33
2023-05-13T14:53:49.104Z,1.35
2023-05-13T14:56:16.118Z,1.92
2023-05-13T14:58:43.035Z,2.10
2023-05-13T15:05:16.341Z,1.90
2023-05-13T15:07:43.476Z,2.15
2023-05-13T15:10:10.768Z,2.15
2023-05-13T15:12:37.685Z,2.33
2023-05-13T15:15:05.195Z,2.38
2023-05-13T15:17:32.165Z,1.65
2023-05-13T15:19:59.051Z,2.00
2023-05-13T15:22:25.974Z,2.13
2023-05-13T15:24:52.935Z,3.38
2023-05-13T15:27:19.970Z,3.00
2023-05-13T15:29:46.867Z,3.00
2023-05-13T15:32:13.801Z,2.92
2023-05-13T15:34:40.693Z,2.92
2023-05-13T15:37:07.562Z,2.95
2023-05-13T15:39:34.572Z,4.28
2023-05-13T15:42:01.631Z,2.85
2023-05-13T15:44:28.611Z,2.88
2023-05-13T15:46:55.653Z,2.92
2023-05-13T15:49:22.834Z,3.33
2023-05-13T15:51:49.812Z,2.53
2023-05-13T15:54:16.763Z,3.22
2023-05-13T15:56:43.809Z,3.80
2023-05-13T15:59:10.813Z,3.63
2023-05-13T16:01:40.164Z,3.45
2023-05-13T16:04:07.489Z,3.42
2023-05-13T16:06:34.352Z,4.20
2023-05-13T16:09:02.060Z,3.03
2023-05-13T16:11:29.495Z,2.70
2023-05-13T16:13:56.586Z,3.53
2023-05-13T16:16:23.591Z,4.10
2023-05-13T16:18:54.502Z,2.75
2023-05-13T16:21:21.534Z,3.20
2023-05-13T16:23:51.001Z,2.88
2023-05-13T16:26:18.051Z,2.65
2023-05-13T16:28:44.943Z,2.75
2023-05-13T16:31:12.135Z,2.40
2023-05-13T16:33:39.066Z,2.58
2023-05-13T16:36:06.782Z,2.75
2023-05-13T16:38:35.358Z,2.78
2023-05-13T16:41:02.284Z,2.70
2023-05-13T16:43:29.204Z,2.47
2023-05-13T16:45:56.276Z,2.70
2023-05-13T16:48:54.758Z,2.90
2023-05-13T16:51:23.129Z,2.70
2023-05-13T16:53:49.992Z,3.00
2023-05-13T16:56:17.061Z,3.00
2023-05-13T16:58:43.977Z,2.92
2023-05-13T17:01:10.985Z,2.28
2023-05-13T17:03:37.915Z,2.97
2023-05-13T17:06:07.192Z,2.92
2023-05-13T17:08:34.084Z,3.03
2023-05-13T17:11:00.969Z,3.95
2023-05-13T17:13:27.904Z,2.90
2023-05-13T17:15:54.803Z,2.72
2023-05-13T17:18:21.740Z,3.17
2023-05-13T17:20:48.647Z,2.33
2023-05-13T17:23:17.202Z,2.50
2023-05-13T17:25:44.334Z,2.75
2023-05-13T17:28:11.604Z,2.80
2023-05-13T17:30:38.521Z,1.88
2023-05-13T17:33:05.582Z,2.58
2023-05-13T17:35:32.744Z,2.40
2023-05-13T17:37:59.622Z,2.58
2023-05-13T17:40:26.569Z,2.47
2023-05-13T17:42:53.570Z,3.28
2023-05-13T17:45:20.763Z,2.25
2023-05-13T17:52:01.951Z,2.65
2023-05-13T17:54:28.840Z,2.38
2023-05-13T17:56:55.678Z,2.80
2023-05-13T17:59:22.665Z,2.78
2023-05-13T18:01:49.616Z,2.63
2023-05-13T18:04:16.695Z,2.80
2023-05-13T18:06:43.573Z,2.38
2023-05-13T18:09:11.165Z,2.20
2023-05-13T18:11:38.062Z,2.75
2023-05-13T18:14:04.995Z,2.28
2023-05-13T18:16:31.963Z,2.22
2023-05-13T18:18:58.919Z,2.58
2023-05-13T18:21:27.340Z,2.22
2023-05-13T18:23:54.469Z,1.92
2023-05-13T18:26:21.719Z,2.63
2023-05-13T18:28:48.737Z,1.92
2023-05-13T18:31:15.803Z,2.70
2023-05-13T18:33:42.778Z,2.75
2023-05-13T18:36:10.380Z,2.90
2023-05-13T18:38:37.438Z,2.88
2023-05-13T18:41:05.018Z,2.55
2023-05-13T18:43:31.976Z,2.65
2023-05-13T18:45:59.040Z,2.83
2023-05-13T18:48:26.000Z,2.35
2023-05-13T18:50:55.550Z,2.17
2023-05-13T18:53:22.735Z,2.95
2023-05-13T18:55:49.819Z,2.42
2023-05-13T18:58:17.313Z,3.00
2023-05-13T19:00:44.348Z,2.70
2023-05-13T19:03:11.520Z,4.03
2023-05-13T19:05:38.567Z,3.72
2023-05-13T19:08:08.050Z,3.72
2023-05-13T19:10:39.886Z,3.72
2023-05-13T19:13:07.482Z,4.28
2023-05-13T19:15:34.476Z,5.30
2023-05-13T19:18:01.742Z,6.88
2023-05-13T19:20:29.553Z,7.18
2023-05-13T19:22:56.627Z,3.85
2023-05-13T19:25:23.799Z,3.55
2023-05-13T19:27:51.160Z,2.42
2023-05-13T19:30:18.386Z,3.05
2023-05-13T19:32:45.334Z,2.83
2023-05-13T19:35:12.389Z,4.85
2023-05-13T19:37:39.431Z,3.75
2023-05-13T19:40:06.950Z,3.72
2023-05-13T19:42:34.153Z,3.53
2023-05-13T19:45:01.200Z,3.15
2023-05-13T19:47:30.437Z,3.15
2023-05-13T19:49:57.410Z,3.03
2023-05-13T19:52:25.618Z,2.50
2023-05-13T19:54:52.935Z,2.63
2023-05-13T19:57:19.828Z,3.00
2023-05-13T19:59:46.861Z,3.67
2023-05-13T20:02:13.942Z,2.53
2023-05-13T20:04:41.071Z,2.78
2023-05-13T20:07:09.343Z,4.10
2023-05-13T20:09:36.603Z,2.63
2023-05-13T20:12:03.857Z,2.30
2023-05-13T20:14:44.110Z,2.78
2023-05-13T20:17:14.434Z,2.95
2023-05-13T20:19:42.513Z,3.50
2023-05-13T20:22:09.979Z,2.83
2023-05-13T20:24:37.294Z,3.45
2023-05-13T20:27:04.479Z,3.20
2023-05-13T20:29:36.982Z,2.92
2023-05-13T20:32:07.431Z,3.20
2023-05-13T20:34:34.618Z,2.90
2023-05-13T20:37:01.606Z,2.83
2023-05-13T20:39:31.115Z,2.92
2023-05-13T20:41:58.156Z,2.72
2023-05-13T20:44:25.446Z,2.67
2023-05-13T20:46:52.557Z,3.53
2023-05-13T20:49:19.452Z,3.10
2023-05-13T20:51:47.806Z,3.08
2023-05-13T20:54:15.305Z,2.75
2023-05-13T20:56:42.186Z,2.72
2023-05-13T20:59:11.498Z,2.72
2023-05-13T21:01:38.898Z,3.22
2023-05-13T21:04:06.440Z,2.83
2023-05-13T21:06:33.500Z,2.95
2023-05-13T21:09:00.819Z,3.42
2023-05-13T21:11:27.830Z,3.40
2023-05-13T21:13:54.874Z,2.88
2023-05-13T21:16:22.012Z,3.30
2023-05-13T21:18:49.022Z,2.55
2023-05-13T21:21:15.967Z,3.03
2023-05-13T21:23:46.019Z,3.42
2023-05-13T21:26:13.199Z,3.63
2023-05-13T21:28:40.332Z,2.90
2023-05-13T21:31:07.310Z,3.40
2023-05-13T21:33:34.325Z,3.47
2023-05-13T21:36:01.287Z,3.90
2023-05-13T21:38:28.244Z,3.70
2023-05-13T21:40:55.273Z,2.70
2023-05-13T21:43:22.509Z,3.75
2023-05-13T21:45:49.618Z,4.10
2023-05-13T21:48:17.522Z,3.35
2023-05-13T21:50:48.897Z,3.65
2023-05-13T21:53:16.202Z,4.07
2023-05-13T21:55:44.280Z,4.03
2023-05-13T21:58:11.776Z,4.40
2023-05-13T22:00:39.002Z,3.75
2023-05-13T22:03:07.484Z,4.43
2023-05-13T22:05:43.754Z,4.50
2023-05-13T22:08:11.326Z,4.10
2023-05-13T22:10:39.645Z,4.72
2023-05-13T22:13:07.641Z,4.45
2023-05-13T22:15:35.282Z,4.30
2023-05-13T22:18:02.840Z,4.03
2023-05-13T22:20:31.249Z,4.50
2023-05-13T22:22:58.727Z,4.13
2023-05-13T22:25:25.821Z,4.65
2023-05-13T22:27:52.968Z,3.95
2023-05-13T22:30:20.191Z,4.70
2023-05-13T22:32:47.357Z,3.88
2023-05-13T22:35:14.519Z,4.53
2023-05-13T22:37:41.897Z,4.75
2023-05-13T22:40:10.132Z,3.65
2023-05-13T22:42:37.462Z,4.22
2023-05-13T22:45:04.976Z,4.07
2023-05-13T22:47:32.200Z,3.70
2023-05-13T22:49:59.413Z,3.58
2023-05-13T22:52:29.679Z,4.45
2023-05-13T22:54:56.872Z,4.13
2023-05-13T22:57:24.217Z,3.72
2023-05-13T22:59:51.684Z,3.70
2023-05-13T23:02:20.196Z,4.10
2023-05-13T23:04:47.185Z,3.58
2023-05-13T23:07:14.115Z,3.58
2023-05-13T23:09:41.208Z,4.13
2023-05-13T23:12:08.312Z,3.95
2023-05-13T23:14:35.442Z,4.40
2023-05-13T23:17:02.644Z,4.20
2023-05-13T23:19:29.860Z,3.65
2023-05-13T23:21:56.839Z,4.50
2023-05-13T23:24:23.712Z,3.55
2023-05-13T23:26:50.589Z,4.65
2023-05-13T23:29:17.504Z,4.18
2023-05-13T23:31:44.453Z,3.22
2023-05-13T23:34:11.442Z,4.05
2023-05-13T23:36:38.310Z,4.13
2023-05-13T23:39:06.032Z,4.07
2023-05-13T23:41:34.905Z,4.43
2023-05-13T23:44:01.860Z,3.85
2023-05-13T23:46:28.845Z,4.32
2023-05-13T23:48:55.967Z,4.07
2023-05-13T23:51:23.026Z,4.35
2023-05-13T23:53:50.076Z,5.13
2023-05-13T23:56:17.012Z,5.75
2023-05-13T23:58:44.027Z,4.57
